Time;durP1;ratioP1;P1;durP2;ratioP2;P2;SDS_P1;SDS_P2;PMS_P1;PMS_P2;Temp;Humidity;BMP_temperature;BMP_pressure;BME280_temperature;BME280_humidity;BME280_pressure;Samples;Min_cycle;Max_cycle;Signal;HPM_P1;HPM_P2
2024/03/15 00:00:05;;;;;;;0.00;0.00;;;;;;;10.84;100.00;99126.06;6241240;22;20024;-75
2024/03/15 00:02:32;;;;;;;0.00;0.00;;;;;;;10.86;100.00;99132.03;6212453;23;20011;-74
2024/03/15 00:04:59;;;;;;;0.00;0.00;;;;;;;10.84;100.00;99117.88;6213531;23;20008;-75
2024/03/15 00:07:27;;;;;;;0.00;0.00;;;;;;;10.86;100.00;99118.34;6187831;23;20004;-77
2024/03/15 00:09:52;;;;;;;0.00;0.00;;;;;;;10.92;100.00;99138.22;6211969;23;20087;-77
2024/03/15 00:12:18;;;;;;;0.00;0.00;;;;;;;10.80;100.00;99122.31;6216230;23;20024;-77
2024/03/15 00:14:43;;;;;;;0.00;0.00;;;;;;;10.79;100.00;99131.59;6212446;23;20004;-77
2024/03/15 00:17:13;;;;;;;0.00;0.00;;;;;;;10.74;100.00;99142.66;6215328;23;20620;-77
2024/03/15 00:19:41;;;;;;;0.00;0.00;;;;;;;10.58;100.00;99115.53;6216436;23;20004;-76
2024/03/15 00:22:14;;;;;;;0.00;0.00;;;;;;;10.68;100.00;99119.25;6163808;23;20098;-75
2024/03/15 00:27:43;;;;;;;0.00;0.00;;;;;;;10.78;100.00;99130.00;6209489;22;20028;-76
2024/03/15 00:47:12;;;;;;;0.00;0.00;;;;;;;10.37;100.00;99119.72;6150720;23;20021;-80
2024/03/15 00:49:40;;;;;;;0.00;0.00;;;;;;;10.43;100.00;99154.84;6148249;23;20006;-76
2024/03/15 00:52:05;;;;;;;0.00;0.00;;;;;;;10.21;100.00;99097.25;6174236;23;20005;-75
2024/03/15 00:54:31;;;;;;;0.00;0.00;;;;;;;10.35;100.00;99117.25;6212660;23;20011;-75
2024/03/15 00:56:57;;;;;;;0.00;0.00;;;;;;;10.26;100.00;99097.97;6186613;23;20419;-76
2024/03/15 00:59:22;;;;;;;0.00;0.00;;;;;;;10.37;100.00;99114.25;6182881;23;20092;-77
2024/03/15 01:01:48;;;;;;;0.00;0.00;;;;;;;10.41;100.00;99123.47;6161567;23;20073;-76
2024/03/15 01:04:13;;;;;;;0.00;0.00;;;;;;;10.45;100.00;99143.63;6158886;23;20016;-76
2024/03/15 01:06:39;;;;;;;0.00;0.00;;;;;;;10.43;100.00;99134.94;6135535;23;20005;-76
2024/03/15 01:09:04;;;;;;;0.00;0.00;;;;;;;10.30;100.00;99145.44;6160531;23;20446;-75
2024/03/15 01:11:29;;;;;;;0.00;0.00;;;;;;;10.36;100.00;99145.41;6159174;23;20012;-76
2024/03/15 01:13:57;;;;;;;0.00;0.00;;;;;;;10.38;100.00;99148.66;6185911;23;20020;-76
2024/03/15 01:16:23;;;;;;;0.00;0.00;;;;;;;10.37;100.00;99125.19;6135531;23;20012;-76
2024/03/15 01:18:48;;;;;;;0.00;0.00;;;;;;;10.45;100.00;99130.78;6160158;23;20435;-76
2024/03/15 01:21:14;;;;;;;0.00;0.00;;;;;;;10.53;100.00;99140.22;6185953;23;20039;-77
2024/03/15 01:23:39;;;;;;;0.00;0.00;;;;;;;10.60;100.00;99140.69;6158584;23;20083;-76
2024/03/15 01:26:07;;;;;;;0.00;0.00;;;;;;;10.61;100.00;99136.81;6134693;23;20091;-76
2024/03/15 01:28:32;;;;;;;0.10;0.10;;;;;;;10.65;100.00;99143.31;6182812;23;20050;-76
2024/03/15 01:30:59;;;;;;;0.00;0.00;;;;;;;10.59;100.00;99133.56;6157454;23;20435;-76
2024/03/15 01:33:25;;;;;;;0.00;0.00;;;;;;;10.57;100.00;99124.03;6160212;23;20009;-77
2024/03/15 01:35:51;;;;;;;0.00;0.00;;;;;;;10.68;100.00;99141.09;6184217;23;20027;-76
2024/03/15 01:38:18;;;;;;;0.00;0.00;;;;;;;10.69;100.00;99129.88;6159555;23;20017;-77
2024/03/15 01:40:43;;;;;;;0.00;0.00;;;;;;;10.75;100.00;99125.94;6133259;23;20009;-78
2024/03/15 01:43:12;;;;;;;0.00;0.00;;;;;;;10.78;100.00;99127.28;6161770;23;20400;-76
2024/03/15 01:45:39;;;;;;;0.00;0.00;;;;;;;10.82;100.00;99129.09;6208531;23;20043;-76
2024/03/15 01:48:05;;;;;;;0.00;0.00;;;;;;;10.71;100.00;99107.69;6210992;23;20004;-76
2024/03/15 01:50:31;;;;;;;0.00;0.00;;;;;;;10.78;100.00;99130.00;6135161;23;20328;-77
2024/03/15 01:52:58;;;;;;;0.00;0.00;;;;;;;10.71;100.00;99124.91;6135913;23;20014;-76
2024/03/15 01:55:24;;;;;;;0.00;0.00;;;;;;;10.70;100.00;99127.94;6187311;23;20439;-75
2024/03/15 01:57:50;;;;;;;0.00;0.00;;;;;;;10.73;100.00;99127.34;6160492;23;20008;-75
2024/03/15 02:00:16;;;;;;;0.00;0.00;;;;;;;10.63;100.00;99120.94;6161755;23;20012;-75
2024/03/15 02:02:43;;;;;;;0.00;0.00;;;;;;;10.68;100.00;99114.56;6136458;23;20412;-77
2024/03/15 02:05:10;;;;;;;0.00;0.00;;;;;;;10.77;100.00;99128.38;6186990;23;20004;-76
2024/03/15 02:07:36;;;;;;;0.00;0.00;;;;;;;10.76;100.00;99126.75;6188319;23;20131;-75
2024/03/15 02:10:11;;;;;;;0.00;0.00;;;;;;;10.79;100.00;99118.75;6162263;23;20005;-76
2024/03/15 02:12:38;;;;;;;0.00;0.00;;;;;;;10.83;100.00;99121.69;6210124;23;20428;-76
2024/03/15 02:15:05;;;;;;;0.00;0.00;;;;;;;10.78;100.00;99113.59;6157435;23;20622;-76
2024/03/15 02:17:32;;;;;;;0.00;0.00;;;;;;;10.84;100.00;99123.34;6184623;23;20080;-76
2024/03/15 02:19:58;;;;;;;0.00;0.00;;;;;;;10.78;100.00;99105.41;6183385;23;20035;-75
2024/03/15 02:22:23;;;;;;;0.00;0.00;;;;;;;10.79;100.00;99105.09;6159034;23;20343;-75
2024/03/15 02:24:48;;;;;;;0.00;0.00;;;;;;;10.77;100.00;99106.50;6211233;23;20108;-74
2024/03/15 02:27:14;;;;;;;0.00;0.00;;;;;;;10.79;100.00;99104.25;6132265;23;20086;-75
2024/03/15 02:29:40;;;;;;;0.00;0.00;;;;;;;10.77;100.00;99111.97;6160002;23;20009;-75
2024/03/15 02:32:06;;;;;;;0.03;0.03;;;;;;;10.75;100.00;99120.47;6156529;23;20407;-75
2024/03/15 02:34:34;;;;;;;0.00;0.00;;;;;;;10.73;100.00;99116.41;6184452;23;20011;-75
2024/03/15 02:37:00;;;;;;;0.00;0.00;;;;;;;10.77;100.00;99117.44;6158250;23;20008;-75
2024/03/15 02:39:26;;;;;;;0.00;0.00;;;;;;;10.78;100.00;99125.34;6132791;23;20013;-74
2024/03/15 02:41:52;;;;;;;0.00;0.00;;;;;;;10.70;100.00;99111.53;6184147;23;20065;-74
2024/03/15 02:44:18;;;;;;;0.00;0.00;;;;;;;10.77;100.00;99111.97;6159871;23;20016;-75
2024/03/15 02:46:45;;;;;;;0.00;0.00;;;;;;;10.74;100.00;99118.03;6161221;23;20009;-75
2024/03/15 02:49:10;;;;;;;0.00;0.00;;;;;;;10.76;100.00;99111.16;6209624;22;20008;-75
2024/03/15 02:51:35;;;;;;;0.00;0.00;;;;;;;10.74;100.00;99107.91;6136802;23;20059;-75
2024/03/15 02:54:03;;;;;;;0.00;0.00;;;;;;;10.58;100.00;99088.19;6159235;23;20414;-76
2024/03/15 02:56:28;;;;;;;0.00;0.00;;;;;;;10.69;100.00;99104.44;6160541;23;20013;-76
2024/03/15 02:58:54;;;;;;;0.00;0.00;;;;;;;10.68;100.00;99109.09;6184768;23;20009;-75
2024/03/15 03:01:20;;;;;;;0.00;0.00;;;;;;;10.64;100.00;99103.44;6184013;23;20000;-75
2024/03/15 03:03:45;;;;;;;0.00;0.00;;;;;;;10.55;100.00;99082.53;6212593;23;20005;-74
2024/03/15 03:06:10;;;;;;;0.00;0.00;;;;;;;10.48;100.00;99088.38;6183962;23;20009;-75
2024/03/15 03:08:36;;;;;;;0.00;0.00;;;;;;;10.55;100.00;99113.41;6162983;23;20486;-76
2024/03/15 03:11:06;;;;;;;0.10;0.10;;;;;;;10.53;100.00;99096.50;6187272;23;20000;-77
2024/03/15 03:13:33;;;;;;;0.00;0.00;;;;;;;10.30;100.00;99066.22;6185803;23;20028;-77
2024/03/15 03:15:59;;;;;;;0.00;0.00;;;;;;;10.54;100.00;99103.59;6188355;23;20023;-76
2024/03/15 03:18:25;;;;;;;0.00;0.00;;;;;;;10.56;100.00;99098.63;6163789;23;20016;-76
2024/03/15 03:20:50;;;;;;;0.00;0.00;;;;;;;10.59;100.00;99105.44;6139600;23;20379;-77
2024/03/15 03:23:15;;;;;;;0.00;0.00;;;;;;;10.60;100.00;99096.94;6162595;23;20028;-77
2024/03/15 03:25:41;;;;;;;0.00;0.00;;;;;;;10.63;100.00;99090.88;6186175;23;20423;-76
2024/03/15 03:28:08;;;;;;;0.00;0.00;;;;;;;10.52;100.00;99081.22;6138653;23;20005;-78
2024/03/15 03:30:34;;;;;;;0.00;0.00;;;;;;;10.53;100.00;99085.56;6161017;23;20067;-77
2024/03/15 03:33:03;;;;;;;0.00;0.00;;;;;;;10.53;100.00;99095.66;6187821;23;20008;-77
2024/03/15 03:35:28;;;;;;;0.00;0.00;;;;;;;10.52;100.00;99089.41;6184483;23;20125;-77
2024/03/15 03:37:54;;;;;;;0.00;0.00;;;;;;;10.42;100.00;99067.72;6137498;23;20088;-77
2024/03/15 03:40:24;;;;;;;0.00;0.00;;;;;;;10.59;100.00;99095.31;6163289;23;20005;-76
2024/03/15 03:42:50;;;;;;;0.00;0.00;;;;;;;10.56;100.00;99078.69;6163397;23;20004;-77
2024/03/15 03:45:16;;;;;;;0.00;0.00;;;;;;;10.59;100.00;99067.16;6162167;23;20004;-77
2024/03/15 03:47:45;;;;;;;0.00;0.00;;;;;;;10.64;100.00;99081.56;6186226;23;20011;-77
2024/03/15 03:50:14;;;;;;;0.00;0.00;;;;;;;10.75;100.00;99079.47;6185917;23;19996;-74
2024/03/15 03:52:40;;;;;;;0.00;0.00;;;;;;;10.71;100.00;99091.28;6160024;23;20064;-75
2024/03/15 03:55:09;;;;;;;0.00;0.00;;;;;;;10.50;100.00;99075.25;6186270;23;20080;-75
2024/03/15 03:57:36;;;;;;;0.00;0.00;;;;;;;10.39;100.00;99084.69;6160244;23;20087;-74
2024/03/15 04:00:07;;;;;;;0.00;0.00;;;;;;;10.26;100.00;99081.56;6186171;23;20008;-75
2024/03/15 04:02:32;;;;;;;0.10;0.10;;;;;;;10.28;100.00;99103.97;6187046;23;20020;-75
2024/03/15 04:04:58;;;;;;;0.00;0.00;;;;;;;10.17;100.00;99077.88;6186782;23;20009;-75
2024/03/15 04:07:30;;;;;;;0.00;0.00;;;;;;;10.17;100.00;99085.28;6161976;23;19997;-75
2024/03/15 04:09:56;;;;;;;0.00;0.00;;;;;;;10.10;100.00;99069.25;6160246;23;20059;-76
2024/03/15 04:12:22;;;;;;;0.00;0.00;;;;;;;10.21;100.00;99089.84;6160497;23;20016;-76
2024/03/15 04:14:49;;;;;;;0.03;0.03;;;;;;;10.19;100.00;99086.63;6158169;23;20331;-76
2024/03/15 04:17:16;;;;;;;0.00;0.00;;;;;;;10.06;100.00;99065.47;6159855;23;20008;-77
2024/03/15 04:19:43;;;;;;;0.00;0.00;;;;;;;10.12;100.00;99081.50;6185335;23;20471;-76
2024/03/15 04:22:10;;;;;;;0.00;0.00;;;;;;;9.91;100.00;99066.53;6159113;23;20008;-74
2024/03/15 04:24:36;;;;;;;0.00;0.00;;;;;;;9.84;100.00;99069.63;6136931;23;20100;-76
2024/03/15 04:27:03;;;;;;;0.00;0.00;;;;;;;9.78;100.00;99070.78;6157258;23;20431;-77
2024/03/15 04:29:30;;;;;;;0.00;0.00;;;;;;;9.67;100.00;99058.41;6182794;23;20336;-77
2024/03/15 04:31:58;;;;;;;0.00;0.00;;;;;;;9.78;100.00;99144.50;6159878;23;20017;-76
2024/03/15 04:34:24;;;;;;;0.00;0.00;;;;;;;9.60;100.00;99042.38;6185135;23;20418;-76
2024/03/15 04:36:53;;;;;;;0.00;0.00;;;;;;;9.70;100.00;99085.13;6159938;23;20009;-76
2024/03/15 04:39:18;;;;;;;0.00;0.00;;;;;;;9.66;100.00;99041.19;6210618;23;20004;-75
2024/03/15 04:41:44;;;;;;;0.00;0.00;;;;;;;9.88;100.00;99070.66;6158069;23;20068;-75
2024/03/15 04:44:09;;;;;;;0.00;0.00;;;;;;;9.72;100.00;99040.00;6182305;23;20012;-76
2024/03/15 04:46:35;;;;;;;0.00;0.00;;;;;;;9.95;100.00;99082.03;6211053;23;20000;-77
2024/03/15 04:49:02;;;;;;;0.05;0.05;;;;;;;9.93;100.00;99078.78;6159184;23;20016;-76
2024/03/15 04:51:30;;;;;;;0.00;0.00;;;;;;;9.86;100.00;99051.03;6186222;23;19996;-77
2024/03/15 04:53:55;;;;;;;0.00;0.00;;;;;;;9.86;100.00;99070.16;6186525;23;20332;-80
2024/03/15 04:56:20;;;;;;;0.00;0.00;;;;;;;9.72;100.00;99067.31;6136116;23;20044;-78
2024/03/15 04:59:07;;;;;;;0.00;0.00;;;;;;;9.72;100.00;99063.78;6182956;23;20023;-78
2024/03/15 05:01:34;;;;;;;0.00;0.00;;;;;;;9.82;100.00;99077.28;6187390;23;20396;-79
2024/03/15 05:03:59;;;;;;;0.00;0.00;;;;;;;9.80;100.00;99093.16;6155497;23;20009;-77
2024/03/15 05:06:25;;;;;;;0.00;0.00;;;;;;;9.85;100.00;99082.16;6185099;23;20020;-79
2024/03/15 05:08:51;;;;;;;0.00;0.00;;;;;;;9.70;100.00;99074.19;6158897;23;20012;-79
2024/03/15 05:11:17;;;;;;;0.00;0.00;;;;;;;9.79;100.00;99088.81;6182952;23;20004;-79
2024/03/15 05:13:42;;;;;;;0.00;0.00;;;;;;;9.81;100.00;99113.88;6132640;23;20103;-77
2024/03/15 05:16:12;;;;;;;0.08;0.08;;;;;;;9.78;100.00;99082.53;6181453;23;20043;-78
2024/03/15 05:18:40;;;;;;;0.00;0.00;;;;;;;9.72;100.00;99071.97;6160925;23;20144;-77
2024/03/15 05:21:05;;;;;;;0.00;0.00;;;;;;;9.78;100.00;99081.72;6157455;23;20417;-77
2024/03/15 05:23:31;;;;;;;0.00;0.00;;;;;;;9.69;100.00;99072.56;6181505;23;20004;-79
2024/03/15 05:25:56;;;;;;;0.00;0.00;;;;;;;9.60;100.00;99086.84;6208018;23;20031;-77
2024/03/15 05:28:24;;;;;;;0.00;0.00;;;;;;;9.61;100.00;99085.75;6182581;23;20091;-79
2024/03/15 05:30:50;;;;;;;0.00;0.00;;;;;;;9.46;100.00;99075.00;6182548;23;20036;-79
2024/03/15 05:33:15;;;;;;;0.10;0.10;;;;;;;9.39;100.00;99086.28;6134572;23;20005;-77
2024/03/15 05:35:41;;;;;;;0.00;0.00;;;;;;;9.35;100.00;99079.78;6158053;23;20057;-79
2024/03/15 05:38:06;;;;;;;0.00;0.00;;;;;;;9.26;100.00;99120.53;6158023;23;20034;-78
2024/03/15 05:40:32;;;;;;;0.00;0.00;;;;;;;9.26;100.00;99097.91;6159432;23;20016;-79
2024/03/15 05:42:58;;;;;;;0.00;0.00;;;;;;;9.29;100.00;99099.22;6160780;23;20423;-78
2024/03/15 05:45:24;;;;;;;0.00;0.00;;;;;;;9.35;100.00;99104.34;6183920;23;20016;-80
2024/03/15 05:47:50;;;;;;;0.00;0.00;;;;;;;9.46;100.00;99101.50;6183157;23;20015;-81
2024/03/15 05:50:16;;;;;;;0.00;0.00;;;;;;;9.42;100.00;99085.72;6160266;23;20040;-76
2024/03/15 05:52:41;;;;;;;0.00;0.00;;;;;;;9.53;100.00;99100.03;6134488;23;20443;-77
2024/03/15 05:55:08;;;;;;;0.00;0.00;;;;;;;9.54;100.00;99090.75;6184389;23;20008;-78
2024/03/15 05:57:34;;;;;;;0.00;0.00;;;;;;;9.56;100.00;99083.09;6158840;23;20407;-77
2024/03/15 06:00:10;;;;;;;0.00;0.00;;;;;;;9.58;100.00;99094.53;6209725;23;20004;-80
2024/03/15 06:02:38;;;;;;;0.00;0.00;;;;;;;9.68;100.00;99109.97;6160732;23;20067;-77
2024/03/15 06:05:04;;;;;;;0.00;0.00;;;;;;;9.55;100.00;99095.13;6159097;23;20012;-79
2024/03/15 06:07:32;;;;;;;0.00;0.00;;;;;;;9.54;100.00;99100.88;6160247;23;20011;-78
2024/03/15 06:09:57;;;;;;;0.00;0.00;;;;;;;9.40;100.00;99087.94;6160296;23;20428;-78
2024/03/15 06:12:27;;;;;;;0.05;0.05;;;;;;;9.50;100.00;99103.34;6135191;23;20035;-79
2024/03/15 06:14:56;;;;;;;0.00;0.00;;;;;;;9.57;100.00;99114.72;6163603;23;20016;-77
2024/03/15 06:17:24;;;;;;;0.00;0.00;;;;;;;9.42;100.00;99096.63;6189226;23;20005;-77
2024/03/15 06:19:51;;;;;;;0.00;0.00;;;;;;;9.59;100.00;99103.53;6185043;23;20039;-76
2024/03/15 06:22:19;;;;;;;0.00;0.00;;;;;;;9.67;100.00;99126.66;6134660;23;20024;-77
2024/03/15 06:24:46;;;;;;;0.00;0.00;;;;;;;9.52;100.00;99094.88;6161619;23;20009;-77
2024/03/15 06:27:13;;;;;;;0.03;0.03;;;;;;;9.60;100.00;99102.41;6181276;23;20035;-77
2024/03/15 06:29:52;;;;;;;0.00;0.00;;;;;;;9.65;100.00;99104.28;6183909;23;20008;-78
2024/03/15 06:32:25;;;;;;;0.00;0.00;;;;;;;9.75;100.00;99112.31;6157697;23;20013;-78
2024/03/15 06:34:51;;;;;;;0.00;0.00;;;;;;;9.79;100.00;99121.56;6163025;23;20001;-80
2024/03/15 06:37:17;;;;;;;0.00;0.00;;;;;;;9.87;100.00;99126.38;6158155;23;20004;-77
2024/03/15 06:42:24;;;;;;;0.00;0.00;;;;;;;9.90;100.00;99117.59;6164324;23;20077;-78
2024/03/15 06:45:57;;;;;;;0.00;0.00;;;;;;;9.90;100.00;99120.34;6162258;23;20010;-78
2024/03/15 06:47:52;;;;;;;0.00;0.00;;;;;;;9.94;100.00;99118.66;6185642;23;20013;-78
2024/03/15 06:52:44;;;;;;;0.00;0.00;;;;;;;9.96;100.00;99110.97;6182490;23;20031;-77
2024/03/15 06:55:11;;;;;;;0.00;0.00;;;;;;;10.04;100.00;99122.34;6186538;23;20062;-80
2024/03/15 06:57:40;;;;;;;0.00;0.00;;;;;;;10.08;100.00;99128.84;6160404;23;20047;-79
2024/03/15 07:00:10;;;;;;;0.00;0.00;;;;;;;9.99;100.00;99114.19;6185287;23;20016;-77
2024/03/15 07:02:43;;;;;;;0.00;0.00;;;;;;;10.09;100.00;99133.19;6158698;23;20021;-78
2024/03/15 07:05:18;;;;;;;0.00;0.00;;;;;;;10.09;100.00;99133.19;6160708;23;20188;-78
2024/03/15 07:07:43;;;;;;;0.00;0.00;;;;;;;10.18;100.00;99138.78;6160519;23;20335;-77
2024/03/15 07:10:13;;;;;;;0.00;0.00;;;;;;;10.14;100.00;99122.19;6157130;23;20036;-79
2024/03/15 07:12:39;;;;;;;0.00;0.00;;;;;;;10.20;100.00;99148.31;6184776;23;20091;-74
2024/03/15 07:15:15;;;;;;;0.00;0.00;;;;;;;10.24;100.00;99132.16;6185172;23;20028;-78
2024/03/15 07:17:48;;;;;;;0.00;0.00;;;;;;;10.32;100.00;99145.16;6185417;23;20336;-77
2024/03/15 07:20:16;;;;;;;0.00;0.00;;;;;;;10.23;100.00;99122.34;6207859;23;20028;-76
2024/03/15 07:22:42;;;;;;;0.00;0.00;;;;;;;10.25;100.00;99129.13;6136639;23;20416;-76
2024/03/15 07:25:10;;;;;;;0.00;0.00;;;;;;;10.20;100.00;99126.47;6161075;23;20074;-77
2024/03/15 07:27:36;;;;;;;0.00;0.00;;;;;;;10.30;100.00;99164.56;6211679;22;20015;-75
2024/03/15 07:30:04;;;;;;;0.00;0.00;;;;;;;10.25;100.00;99140.06;6185161;23;20020;-77
2024/03/15 07:32:30;;;;;;;0.00;0.00;;;;;;;10.41;100.00;99145.31;6184696;23;20439;-77
2024/03/15 07:35:00;;;;;;;0.00;0.00;;;;;;;10.65;100.00;99156.19;6162469;23;20016;-77
2024/03/15 07:37:26;;;;;;;0.00;0.00;;;;;;;10.71;100.00;99159.66;6135320;23;20009;-78
2024/03/15 07:39:53;;;;;;;0.00;0.00;;;;;;;10.82;100.00;99145.50;6161492;23;20367;-77
2024/03/15 07:42:22;;;;;;;0.00;0.00;;;;;;;11.00;100.00;99157.50;6161019;23;20046;-77
2024/03/15 07:44:48;;;;;;;0.03;0.03;;;;;;;10.95;100.00;99138.47;6137303;23;20015;-77
2024/03/15 07:47:18;;;;;;;0.00;0.00;;;;;;;10.94;100.00;99145.03;6134309;23;20008;-78
2024/03/15 07:49:44;;;;;;;0.00;0.00;;;;;;;11.03;100.00;99163.50;6159670;23;20005;-78
2024/03/15 07:52:09;;;;;;;0.10;0.10;;;;;;;10.95;100.00;99149.41;6184280;23;20012;-78
2024/03/15 07:54:37;;;;;;;0.00;0.00;;;;;;;11.16;100.00;99157.25;6137148;23;20016;-76
2024/03/15 07:57:05;;;;;;;0.00;0.00;;;;;;;11.40;100.00;99159.00;6185198;23;20044;-79
2024/03/15 08:03:04;;;;;;;0.00;0.00;;;;;;;12.47;100.00;99166.13;6196784;23;20100;-76
2024/03/15 08:05:49;;;;;;;0.00;0.00;;;;;;;13.33;100.00;99159.66;6183856;23;20389;-75
2024/03/15 08:08:19;;;;;;;0.00;0.00;;;;;;;14.26;100.00;99168.06;6183144;23;19996;-77
2024/03/15 08:10:48;;;;;;;0.00;0.00;;;;;;;14.59;100.00;99148.34;6185022;23;20005;-79
2024/03/15 08:13:23;;;;;;;0.00;0.00;;;;;;;14.63;100.00;99165.81;6185242;23;20001;-80
2024/03/15 08:15:59;;;;;;;0.00;0.00;;;;;;;14.39;100.00;99178.09;6183734;23;20023;-79
2024/03/15 08:18:25;;;;;;;0.00;0.00;;;;;;;14.30;100.00;99180.03;6160162;23;20013;-80
2024/03/15 08:20:50;;;;;;;0.00;0.00;;;;;;;14.55;100.00;99188.63;6184027;23;20082;-78
2024/03/15 08:23:17;;;;;;;0.00;0.00;;;;;;;13.71;100.00;99199.56;6209756;23;20423;-78
2024/03/15 08:25:43;;;;;;;0.00;0.00;;;;;;;13.00;100.00;99183.81;6208615;22;20031;-78
2024/03/15 08:28:13;;;;;;;0.00;0.00;;;;;;;13.15;100.00;99185.38;6161129;23;20066;-77
2024/03/15 08:30:39;;;;;;;0.00;0.00;;;;;;;14.51;100.00;99193.16;6183820;23;20013;-78
2024/03/15 08:33:08;;;;;;;0.00;0.00;;;;;;;15.48;100.00;99200.22;6160820;23;20024;-78
2024/03/15 08:35:38;;;;;;;0.00;0.00;;;;;;;15.72;100.00;99191.38;6157556;23;20122;-77
2024/03/15 08:38:03;;;;;;;0.00;0.00;;;;;;;16.43;99.07;99189.88;6183737;23;20005;-78
2024/03/15 08:40:29;;;;;;;0.08;0.08;;;;;;;16.60;92.95;99201.94;6184431;23;20364;-75
2024/03/15 08:42:55;;;;;;;0.00;0.00;;;;;;;16.04;94.53;99208.44;6151891;23;20009;-77
2024/03/15 08:45:21;;;;;;;0.00;0.00;;;;;;;15.56;94.81;99217.84;6159375;23;20065;-79
2024/03/15 08:47:47;;;;;;;0.00;0.00;;;;;;;14.87;99.65;99211.34;6183358;23;20009;-77
2024/03/15 08:50:14;;;;;;;0.00;0.00;;;;;;;14.76;100.00;99236.44;6185584;23;20008;-78
2024/03/15 08:52:40;;;;;;;0.00;0.00;;;;;;;14.19;100.00;99185.00;6207352;23;20001;-80
2024/03/15 08:55:09;;;;;;;0.00;0.00;;;;;;;14.25;100.00;99204.91;6161056;23;20019;-78
2024/03/15 08:57:38;;;;;;;0.00;0.00;;;;;;;16.30;100.00;99207.50;6162008;23;20008;-79
2024/03/15 09:00:11;;;;;;;0.00;0.00;;;;;;;18.79;82.09;99205.72;6160253;23;20016;-78
2024/03/15 09:02:47;;;;;;;0.00;0.00;;;;;;;19.67;70.57;99208.56;6213294;23;20011;-79
2024/03/15 09:05:14;;;;;;;0.00;0.00;;;;;;;18.79;71.20;99244.50;6160982;23;20012;-80
2024/03/15 09:07:42;;;;;;;0.00;0.00;;;;;;;17.15;78.09;99211.09;6158731;23;20081;-79
2024/03/15 09:10:13;;;;;;;0.00;0.00;;;;;;;16.38;84.00;99217.66;6186648;23;20005;-80
2024/03/15 09:12:40;;;;;;;0.00;0.00;;;;;;;16.02;87.82;99230.03;6138485;23;20001;-79
2024/03/15 09:15:07;;;;;;;0.00;0.00;;;;;;;15.35;93.74;99224.06;6159022;23;20096;-79
2024/03/15 09:17:36;;;;;;;0.00;0.00;;;;;;;14.54;97.58;99211.75;6185765;23;20020;-80
2024/03/15 09:20:12;;;;;;;0.00;0.00;;;;;;;14.02;100.00;99234.44;6185655;23;20008;-79
2024/03/15 09:22:39;;;;;;;0.00;0.00;;;;;;;13.84;100.00;99233.56;6161825;23;20005;-80
2024/03/15 09:25:05;;;;;;;0.00;0.00;;;;;;;15.16;100.00;99227.97;6161349;23;20011;-80
2024/03/15 09:27:30;;;;;;;0.00;0.00;;;;;;;16.53;96.34;99244.66;6156930;23;20116;-79
2024/03/15 09:29:56;;;;;;;0.00;0.00;;;;;;;16.17;93.57;99225.91;6211417;23;20415;-80
2024/03/15 09:32:23;;;;;;;0.00;0.00;;;;;;;15.48;95.33;99228.56;6132832;23;20313;-80
2024/03/15 09:34:49;;;;;;;0.00;0.00;;;;;;;14.95;99.08;99254.53;6157199;23;20008;-79
2024/03/15 09:37:14;;;;;;;0.00;0.00;;;;;;;14.43;100.00;99244.28;6133684;23;20490;-78
2024/03/15 09:39:42;;;;;;;0.00;0.00;;;;;;;14.30;100.00;99241.31;6136460;23;20499;-78
2024/03/15 09:42:17;;;;;;;0.00;0.00;;;;;;;14.39;100.00;99249.59;6137195;23;20025;-79
2024/03/15 09:44:48;;;;;;;0.00;0.00;;;;;;;14.31;100.00;99231.16;6183458;23;20374;-79
2024/03/15 09:47:14;;;;;;;0.00;0.00;;;;;;;14.28;100.00;99245.50;6214017;23;20000;-79
2024/03/15 09:49:42;;;;;;;0.00;0.00;;;;;;;14.44;100.00;99240.38;6158933;23;20012;-79
2024/03/15 09:52:11;;;;;;;0.00;0.00;;;;;;;15.02;100.00;99243.84;6162991;23;20047;-79
2024/03/15 09:54:41;;;;;;;0.10;0.10;;;;;;;16.11;97.98;99241.03;6161482;23;20012;-80
2024/03/15 09:57:11;;;;;;;0.00;0.00;;;;;;;17.20;90.33;99247.59;6184583;23;20059;-78
2024/03/15 09:59:37;;;;;;;0.00;0.00;;;;;;;18.83;81.42;99262.03;6187143;23;20665;-80
2024/03/15 10:02:14;;;;;;;0.00;0.00;;;;;;;21.48;66.48;99265.38;6146429;23;20019;-79
2024/03/15 10:04:40;;;;;;;0.00;0.00;;;;;;;23.14;55.00;99244.63;6193986;23;20335;-80
2024/03/15 10:07:08;;;;;;;0.00;0.00;;;;;;;25.08;48.87;99275.38;6186001;23;20008;-80
2024/03/15 10:09:39;;;;;;;0.00;0.00;;;;;;;24.63;44.45;99260.75;6186552;23;20092;-77
2024/03/15 10:12:04;;;;;;;0.00;0.00;;;;;;;24.86;45.51;99252.91;6212522;23;20004;-79
2024/03/15 10:14:30;;;;;;;0.00;0.00;;;;;;;25.71;43.80;99245.22;6160000;23;20011;-77
2024/03/15 10:16:55;;;;;;;0.00;0.00;;;;;;;24.00;45.65;99263.44;6185852;23;20011;-79
2024/03/15 10:19:23;;;;;;;0.00;0.00;;;;;;;23.20;46.62;99269.34;6184157;23;20004;-78
2024/03/15 10:21:48;;;;;;;0.00;0.00;;;;;;;21.88;50.31;99266.97;6184411;23;20387;-79
2024/03/15 10:24:13;;;;;;;0.00;0.00;;;;;;;20.52;52.04;99249.88;6136772;23;20008;-78
2024/03/15 10:26:39;;;;;;;0.00;0.00;;;;;;;19.68;56.99;99265.66;6158821;23;20030;-79
2024/03/15 10:29:07;;;;;;;0.00;0.00;;;;;;;19.91;57.18;99240.09;6160788;23;20096;-77
2024/03/15 10:31:34;;;;;;;0.00;0.00;;;;;;;19.90;55.21;99251.53;6135998;23;20308;-78
2024/03/15 10:34:00;;;;;;;0.00;0.00;;;;;;;19.59;56.78;99259.44;6161269;23;20059;-79
2024/03/15 10:36:25;;;;;;;0.00;0.00;;;;;;;19.43;59.43;99269.69;6136828;23;20000;-77
2024/03/15 10:38:52;;;;;;;0.00;0.00;;;;;;;19.04;60.49;99283.25;6185821;23;20783;-77
2024/03/15 10:41:18;;;;;;;0.00;0.00;;;;;;;18.97;61.03;99279.09;6160656;23;20112;-77
2024/03/15 10:43:43;;;;;;;0.00;0.00;;;;;;;19.82;58.34;99256.13;6159065;23;20448;-79
2024/03/15 10:46:11;;;;;;;0.00;0.00;;;;;;;21.15;52.80;99247.28;6186553;23;20009;-77
2024/03/15 10:48:39;;;;;;;0.00;0.00;;;;;;;22.16;51.19;99260.25;6182994;23;20074;-76
2024/03/15 10:51:08;;;;;;;0.00;0.00;;;;;;;23.78;44.60;99285.53;6184145;23;20005;-75
2024/03/15 10:53:34;;;;;;;0.00;0.00;;;;;;;22.11;46.95;99270.53;6213499;23;20008;-75
2024/03/15 10:56:02;;;;;;;0.00;0.00;;;;;;;21.74;47.68;99261.94;6136392;23;20351;-76
2024/03/15 10:58:27;;;;;;;0.00;0.00;;;;;;;22.72;46.26;99259.56;6182169;23;20009;-77
2024/03/15 11:00:55;;;;;;;0.00;0.00;;;;;;;23.47;44.35;99276.44;6163305;23;20019;-77
2024/03/15 11:03:27;;;;;;;0.00;0.00;;;;;;;23.25;44.07;99269.03;6159677;23;20011;-77
2024/03/15 11:05:53;;;;;;;0.00;0.00;;;;;;;22.98;45.63;99285.78;6187124;23;20008;-77
2024/03/15 11:08:21;;;;;;;0.00;0.00;;;;;;;22.76;45.09;99271.53;6182021;23;20323;-77
2024/03/15 11:10:55;;;;;;;0.00;0.00;;;;;;;20.86;48.80;99278.03;6162681;23;20012;-78
2024/03/15 11:13:25;;;;;;;0.00;0.00;;;;;;;19.29;53.69;99257.06;6159621;23;20092;-77
2024/03/15 11:15:52;;;;;;;0.00;0.00;;;;;;;18.67;58.69;99296.00;6162670;23;20012;-76
2024/03/15 11:18:18;;;;;;;0.00;0.00;;;;;;;20.98;55.06;99288.22;6187833;23;20012;-77
2024/03/15 11:20:48;;;;;;;0.00;0.00;;;;;;;21.40;51.07;99258.88;6182824;23;20015;-77
2024/03/15 11:23:15;;;;;;;0.00;0.00;;;;;;;21.67;49.39;99279.31;6186364;23;20004;-77
2024/03/15 11:25:52;;;;;;;0.00;0.00;;;;;;;20.02;52.58;99288.34;6156767;23;20012;-77
2024/03/15 11:28:19;;;;;;;0.00;0.00;;;;;;;17.96;58.13;99295.28;6185555;23;20004;-77
2024/03/15 11:30:45;;;;;;;0.00;0.00;;;;;;;16.40;69.89;99289.88;6181871;23;20019;-76
2024/03/15 11:33:11;;;;;;;0.00;0.00;;;;;;;15.82;78.04;99281.97;6185523;23;20030;-76
2024/03/15 11:35:40;;;;;;;0.00;0.00;;;;;;;18.02;68.83;99303.34;6182932;23;20008;-77
2024/03/15 11:38:12;;;;;;;0.00;0.00;;;;;;;19.15;62.23;99289.91;6187249;23;20005;-76
2024/03/15 11:40:37;;;;;;;0.00;0.00;;;;;;;18.56;60.88;99292.06;6184706;23;20001;-76
2024/03/15 11:43:06;;;;;;;0.00;0.00;;;;;;;16.88;68.85;99332.81;6183465;23;20012;-76
2024/03/15 11:45:31;;;;;;;0.00;0.00;;;;;;;14.95;81.36;99315.09;6185940;23;20368;-77
2024/03/15 11:47:57;;;;;;;0.00;0.00;;;;;;;13.28;98.34;99294.28;6184431;23;20001;-77
2024/03/15 11:50:22;;;;;;;0.00;0.00;;;;;;;12.29;100.00;99291.25;6185253;23;20092;-78
2024/03/15 11:53:00;;;;;;;0.00;0.00;;;;;;;11.55;100.00;99317.53;6184974;23;20095;-80
2024/03/15 11:55:31;;;;;;;0.00;0.00;;;;;;;11.27;100.00;99273.63;6186871;23;20079;-78
2024/03/15 11:58:00;;;;;;;0.00;0.00;;;;;;;11.14;100.00;99263.44;6187402;23;20012;-78